createdAt,value
2022-08-25T00:01:23.161Z,8.38
2022-08-25T00:03:55.202Z,8.50
2022-08-25T00:06:23.624Z,7.80
2022-08-25T00:08:50.804Z,8.00
2022-08-25T00:11:30.237Z,7.57
2022-08-25T00:14:01.039Z,7.68
2022-08-25T00:16:28.943Z,7.20
2022-08-25T00:18:58.249Z,8.20
2022-08-25T00:21:25.495Z,7.95
2022-08-25T00:23:52.375Z,8.07
2022-08-25T00:26:19.991Z,8.85
2022-08-25T00:28:47.103Z,7.53
2022-08-25T00:31:20.220Z,7.40
2022-08-25T00:33:47.991Z,8.65
2022-08-25T00:36:15.753Z,7.57
2022-08-25T00:38:45.314Z,8.85
2022-08-25T00:41:15.236Z,7.30
2022-08-25T00:43:41.742Z,8.32
2022-08-25T00:46:18.656Z,8.00
2022-08-25T00:48:50.774Z,7.82
2022-08-25T00:51:25.511Z,8.82
2022-08-25T00:53:52.200Z,9.10
2022-08-25T00:56:19.185Z,9.00
2022-08-25T00:58:48.655Z,8.88
2022-08-25T01:01:15.342Z,7.85
2022-08-25T01:03:42.058Z,10.10
2022-08-25T01:06:10.298Z,8.52
2022-08-25T01:08:37.025Z,8.10
2022-08-25T01:11:10.100Z,8.85
2022-08-25T01:13:41.474Z,8.30
2022-08-25T01:16:08.749Z,9.80
2022-08-25T01:18:48.686Z,8.57
2022-08-25T01:21:15.746Z,8.85
2022-08-25T01:23:42.373Z,8.25
2022-08-25T01:26:14.193Z,8.57
2022-08-25T01:29:02.639Z,8.85
2022-08-25T01:31:30.181Z,8.93
2022-08-25T01:33:57.511Z,8.60
2022-08-25T01:36:25.726Z,7.75
2022-08-25T01:38:53.701Z,7.60
2022-08-25T01:41:34.614Z,6.70
2022-08-25T01:44:05.923Z,6.80
2022-08-25T01:46:35.501Z,6.70
2022-08-25T01:49:06.686Z,7.38
2022-08-25T01:51:39.663Z,6.28
2022-08-25T01:54:06.235Z,7.10
2022-08-25T01:56:32.910Z,7.80
2022-08-25T01:58:59.607Z,7.30
2022-08-25T02:01:26.505Z,6.68
2022-08-25T02:03:55.451Z,7.70
2022-08-25T02:06:29.890Z,8.07
2022-08-25T02:09:01.084Z,7.95
2022-08-25T02:11:27.772Z,7.97
2022-08-25T02:13:55.556Z,7.22
2022-08-25T02:16:29.114Z,6.88
2022-08-25T02:18:56.391Z,6.10
2022-08-25T02:21:23.195Z,6.57
2022-08-25T02:23:49.768Z,6.65
2022-08-25T02:26:19.039Z,6.82
2022-08-25T02:28:47.319Z,6.13
2022-08-25T02:31:14.962Z,6.80
2022-08-25T02:33:42.018Z,6.45
2022-08-25T02:36:09.490Z,6.82
2022-08-25T02:38:37.109Z,6.68
2022-08-25T02:41:12.896Z,6.88
2022-08-25T02:43:41.550Z,6.80
2022-08-25T02:46:09.969Z,7.00
2022-08-25T02:48:37.912Z,6.93
2022-08-25T02:51:08.869Z,7.65
2022-08-25T02:53:39.771Z,7.13
2022-08-25T02:56:08.830Z,7.45
2022-08-25T02:58:37.010Z,6.80
2022-08-25T03:01:03.820Z,7.03
2022-08-25T03:03:31.335Z,7.45
2022-08-25T03:05:58.004Z,7.97
2022-08-25T03:08:25.415Z,7.20
2022-08-25T03:10:52.112Z,8.15
2022-08-25T03:13:18.815Z,7.65
2022-08-25T03:15:46.278Z,7.30
2022-08-25T03:18:16.178Z,8.75
2022-08-25T03:20:44.617Z,7.43
2022-08-25T03:23:12.076Z,7.95
2022-08-25T03:26:01.158Z,8.48
2022-08-25T03:28:31.251Z,7.45
2022-08-25T03:31:00.261Z,8.85
2022-08-25T03:33:28.312Z,9.50
2022-08-25T03:35:55.645Z,7.95
2022-08-25T03:38:26.234Z,7.97
2022-08-25T03:40:53.219Z,7.88
2022-08-25T03:43:21.329Z,8.05
2022-08-25T03:45:48.439Z,6.90
2022-08-25T03:48:16.211Z,7.35
2022-08-25T03:50:50.516Z,6.50
2022-08-25T03:53:18.942Z,8.45
2022-08-25T03:55:45.574Z,7.78
2022-08-25T03:58:12.467Z,8.40
2022-08-25T04:00:39.536Z,8.98
2022-08-25T04:03:06.434Z,8.20
2022-08-25T04:05:33.194Z,7.05
2022-08-25T04:08:01.993Z,7.35
2022-08-25T04:10:29.461Z,7.70
2022-08-25T04:12:57.092Z,7.80
2022-08-25T04:15:30.016Z,7.30
2022-08-25T04:17:58.941Z,7.53
2022-08-25T04:20:26.001Z,8.32
2022-08-25T04:22:52.745Z,8.55
2022-08-25T04:25:19.396Z,8.30
2022-08-25T04:27:46.050Z,7.78
2022-08-25T04:30:13.338Z,7.50
2022-08-25T04:32:40.016Z,8.23
2022-08-25T04:35:07.635Z,7.68
2022-08-25T04:37:34.822Z,7.43
2022-08-25T04:40:02.193Z,7.63
2022-08-25T04:42:28.805Z,8.43
2022-08-25T04:44:55.900Z,8.68
2022-08-25T04:47:22.765Z,8.52
2022-08-25T04:49:49.557Z,9.73
2022-08-25T04:52:16.315Z,9.80
2022-08-25T04:54:43.827Z,9.90
2022-08-25T04:57:10.784Z,9.40
2022-08-25T04:59:37.831Z,9.43
2022-08-25T05:02:06.719Z,9.32
2022-08-25T05:04:36.326Z,9.15
2022-08-25T05:07:04.268Z,8.50
2022-08-25T05:09:32.069Z,9.20
2022-08-25T05:11:59.443Z,9.32
2022-08-25T05:14:26.847Z,10.65
2022-08-25T05:16:55.107Z,9.88
2022-08-25T05:19:23.996Z,8.93
2022-08-25T05:21:51.423Z,9.48
2022-08-25T05:24:19.187Z,8.98
2022-08-25T05:26:46.027Z,9.52
2022-08-25T05:29:13.186Z,10.55
2022-08-25T05:31:43.949Z,9.07
2022-08-25T05:34:12.706Z,8.85
2022-08-25T05:36:43.358Z,9.70
2022-08-25T05:39:10.815Z,9.70
2022-08-25T05:41:38.123Z,9.73
2022-08-25T05:44:05.117Z,9.15
2022-08-25T05:46:31.984Z,11.25
2022-08-25T05:48:59.082Z,12.05
2022-08-25T05:51:26.374Z,11.63
2022-08-25T05:53:53.064Z,10.73
2022-08-25T05:56:21.009Z,11.88
2022-08-25T05:58:47.838Z,11.50
2022-08-25T06:01:45.477Z,13.77
2022-08-25T06:04:13.844Z,16.58
2022-08-25T06:06:41.288Z,19.02
2022-08-25T06:09:09.559Z,19.33
2022-08-25T06:11:38.086Z,14.57
2022-08-25T06:14:04.834Z,17.13
2022-08-25T06:16:31.939Z,15.25
2022-08-25T06:18:58.769Z,17.83
2022-08-25T06:21:25.698Z,18.20
2022-08-25T06:23:52.740Z,16.77
2022-08-25T06:26:21.205Z,16.08
2022-08-25T06:28:49.233Z,17.67
2022-08-25T06:31:16.033Z,16.50
2022-08-25T06:33:44.178Z,14.38
2022-08-25T06:36:10.759Z,16.73
2022-08-25T06:38:37.378Z,14.95
2022-08-25T06:41:05.990Z,16.70
2022-08-25T06:43:34.220Z,17.48
2022-08-25T06:46:10.216Z,13.85
2022-08-25T06:48:37.453Z,14.40
2022-08-25T06:51:08.693Z,16.60
2022-08-25T06:53:38.145Z,15.30
2022-08-25T06:56:06.753Z,14.90
2022-08-25T06:58:33.967Z,17.08
2022-08-25T07:01:19.645Z,15.77
2022-08-25T07:03:46.937Z,15.60
2022-08-25T07:06:14.887Z,16.52
2022-08-25T07:08:46.147Z,16.15
2022-08-25T07:11:16.087Z,16.33
2022-08-25T07:13:44.198Z,15.60
2022-08-25T07:16:15.407Z,13.68
2022-08-25T07:18:42.722Z,16.50
2022-08-25T07:21:12.438Z,15.35
2022-08-25T07:23:41.135Z,15.63
2022-08-25T07:29:13.601Z,15.82
2022-08-25T07:31:40.946Z,13.10
2022-08-25T07:34:27.065Z,14.25
2022-08-25T07:36:55.986Z,13.25
2022-08-25T07:39:24.334Z,13.88
2022-08-25T07:41:51.995Z,13.35
2022-08-25T07:44:19.927Z,12.85
2022-08-25T07:46:46.692Z,12.80
2022-08-25T07:49:16.729Z,13.57
2022-08-25T07:52:04.322Z,12.83
2022-08-25T07:54:33.966Z,12.35
2022-08-25T07:57:06.187Z,12.45
2022-08-25T08:02:12.564Z,12.00
2022-08-25T08:04:49.522Z,10.52
2022-08-25T08:07:22.897Z,10.95
2022-08-25T08:09:56.421Z,11.57
2022-08-25T08:12:38.247Z,11.23
2022-08-25T08:15:05.301Z,12.30
2022-08-25T08:17:37.558Z,10.75
2022-08-25T08:20:09.062Z,11.25
2022-08-25T08:22:38.094Z,10.45
2022-08-25T08:25:06.337Z,10.70
2022-08-25T08:27:37.405Z,11.10
2022-08-25T08:30:06.207Z,10.98
2022-08-25T08:32:53.300Z,10.35
2022-08-25T08:35:19.418Z,10.93
2022-08-25T08:37:46.340Z,9.68
2022-08-25T08:40:18.532Z,10.93
2022-08-25T08:43:07.032Z,10.55
2022-08-25T08:45:53.732Z,10.27
2022-08-25T08:48:43.237Z,10.65
2022-08-25T08:51:32.770Z,10.30
2022-08-25T08:54:15.498Z,10.05
2022-08-25T08:56:48.146Z,9.82
2022-08-25T08:59:29.877Z,9.88
2022-08-25T09:02:00.424Z,9.10
2022-08-25T09:04:37.328Z,9.48
2022-08-25T09:07:11.113Z,9.60
2022-08-25T09:09:41.466Z,9.73
2022-08-25T09:12:34.111Z,9.02
2022-08-25T09:15:19.364Z,9.80
2022-08-25T09:18:07.046Z,9.82
2022-08-25T09:20:41.072Z,8.35
2022-08-25T09:23:21.671Z,9.00
2022-08-25T09:26:17.917Z,8.20
2022-08-25T09:28:53.401Z,9.20
2022-08-25T09:31:29.793Z,8.27
2022-08-25T09:34:00.759Z,8.82
2022-08-25T09:36:29.205Z,9.18
2022-08-25T09:38:55.789Z,7.30
2022-08-25T09:41:47.223Z,7.00
2022-08-25T09:44:27.427Z,6.78
2022-08-25T09:47:13.532Z,7.15
2022-08-25T09:49:42.943Z,6.90
2022-08-25T09:52:28.088Z,6.55
2022-08-25T09:54:56.841Z,6.60
2022-08-25T09:57:36.127Z,6.40
2022-08-25T10:00:18.573Z,6.25
2022-08-25T10:03:06.047Z,6.25
2022-08-25T10:05:36.587Z,6.75
2022-08-25T10:08:14.689Z,6.70
2022-08-25T10:10:55.294Z,7.28
2022-08-25T10:13:32.355Z,5.95
2022-08-25T10:16:30.830Z,5.47
2022-08-25T10:21:40.419Z,6.13
2022-08-25T10:24:09.648Z,6.43
2022-08-25T10:26:42.986Z,6.03
2022-08-25T10:29:40.848Z,6.57
2022-08-25T10:32:27.666Z,6.38
2022-08-25T10:34:56.814Z,5.78
2022-08-25T10:37:45.016Z,5.65
2022-08-25T10:40:28.593Z,5.93
2022-08-25T10:43:19.984Z,7.00
2022-08-25T10:46:14.861Z,5.85
2022-08-25T10:48:58.375Z,5.90
2022-08-25T10:51:43.646Z,6.25
2022-08-25T10:54:13.374Z,5.75
2022-08-25T10:57:18.678Z,4.90
2022-08-25T11:00:03.538Z,5.05
2022-08-25T11:03:06.996Z,5.90
2022-08-25T11:05:40.250Z,5.70
2022-08-25T11:08:24.341Z,5.10
2022-08-25T11:11:02.505Z,5.68
2022-08-25T11:13:58.843Z,5.75
2022-08-25T11:17:12.781Z,5.90
2022-08-25T11:19:44.108Z,5.43
2022-08-25T11:22:19.577Z,5.30
2022-08-25T11:24:55.156Z,4.60
2022-08-25T11:27:24.351Z,5.35
2022-08-25T11:30:06.108Z,6.55
2022-08-25T11:32:35.671Z,5.68
2022-08-25T11:35:06.933Z,5.68
2022-08-25T11:40:03.926Z,5.25
2022-08-25T11:42:59.048Z,5.05
2022-08-25T11:45:38.641Z,4.53
2022-08-25T11:48:12.770Z,5.55
2022-08-25T11:51:00.404Z,4.75
2022-08-25T11:53:30.908Z,4.65
2022-08-25T11:56:02.883Z,4.00
2022-08-25T11:58:49.801Z,4.40
2022-08-25T12:01:32.666Z,4.93
2022-08-25T12:04:33.809Z,4.45
2022-08-25T12:09:55.020Z,4.65
2022-08-25T12:12:29.850Z,5.30
2022-08-25T12:15:34.105Z,5.97
2022-08-25T12:18:45.567Z,5.85
2022-08-25T12:21:15.217Z,6.45
2022-08-25T12:23:46.424Z,5.15
2022-08-25T12:26:29.561Z,6.28
2022-08-25T12:29:21.446Z,6.28
2022-08-25T12:31:59.125Z,5.53
2022-08-25T12:34:43.096Z,5.80
2022-08-25T12:37:20.726Z,6.60
2022-08-25T12:39:50.735Z,6.05
2022-08-25T12:42:45.010Z,6.35
2022-08-25T12:45:20.292Z,6.03
2022-08-25T12:47:49.498Z,6.63
2022-08-25T12:50:50.376Z,5.60
2022-08-25T12:53:39.680Z,5.63
2022-08-25T12:56:28.310Z,5.80
2022-08-25T12:59:23.744Z,5.93
2022-08-25T13:02:06.874Z,5.80
2022-08-25T13:05:11.428Z,6.00
2022-08-25T13:07:56.574Z,5.70
2022-08-25T13:10:35.150Z,5.32
2022-08-25T13:13:19.697Z,6.18
2022-08-25T13:15:58.002Z,5.10
2022-08-25T13:18:30.928Z,5.38
2022-08-25T13:21:16.101Z,5.13
2022-08-25T13:23:45.911Z,5.28
2022-08-25T13:26:23.539Z,5.90
2022-08-25T13:28:58.080Z,5.35
2022-08-25T13:31:29.262Z,5.38
2022-08-25T13:33:59.497Z,5.15
2022-08-25T13:36:54.035Z,5.40
2022-08-25T13:39:45.986Z,5.18
2022-08-25T13:42:17.447Z,4.57
2022-08-25T13:44:52.346Z,4.57
2022-08-25T13:47:44.961Z,4.57
2022-08-25T13:50:26.339Z,5.43
2022-08-25T13:52:54.751Z,5.38
2022-08-25T13:55:51.447Z,5.22
2022-08-25T13:58:38.638Z,5.78
2022-08-25T14:01:48.372Z,4.90
2022-08-25T14:04:31.380Z,5.13
2022-08-25T14:07:34.879Z,4.95
2022-08-25T14:10:29.733Z,5.05
2022-08-25T14:13:30.883Z,4.95
2022-08-25T14:16:09.897Z,5.20
2022-08-25T14:18:36.754Z,5.13
2022-08-25T14:21:10.806Z,5.63
2022-08-25T14:23:38.684Z,5.65
2022-08-25T14:26:06.417Z,5.07
2022-08-25T14:28:33.550Z,5.20
2022-08-25T14:31:05.430Z,4.80
2022-08-25T14:33:55.898Z,5.53
2022-08-25T14:36:22.709Z,5.55
2022-08-25T14:38:54.611Z,5.13
2022-08-25T14:41:23.856Z,5.45
2022-08-25T14:43:50.643Z,6.15
2022-08-25T14:46:21.438Z,5.28
2022-08-25T14:48:54.572Z,5.13
2022-08-25T14:51:23.534Z,5.40
2022-08-25T14:53:54.213Z,5.28
2022-08-25T14:56:21.943Z,5.70
2022-08-25T14:58:52.900Z,6.13
2022-08-25T15:01:29.038Z,5.43
2022-08-25T15:04:12.661Z,5.18
2022-08-25T15:06:43.791Z,5.30
2022-08-25T15:09:13.137Z,5.15
2022-08-25T15:11:52.253Z,5.20
2022-08-25T15:14:29.026Z,5.97
2022-08-25T15:17:00.498Z,5.10
2022-08-25T15:19:27.676Z,5.10
2022-08-25T15:21:57.711Z,5.28
2022-08-25T15:24:27.010Z,5.32
2022-08-25T15:26:57.067Z,5.80
2022-08-25T15:29:27.560Z,5.88
2022-08-25T15:31:54.635Z,5.88
2022-08-25T15:34:21.443Z,5.78
2022-08-25T15:36:49.566Z,5.07
2022-08-25T15:39:17.945Z,5.03
2022-08-25T15:41:52.487Z,5.85
2022-08-25T15:44:19.474Z,5.75
2022-08-25T15:46:49.481Z,6.72
2022-08-25T15:51:50.569Z,5.93
2022-08-25T15:54:17.264Z,6.50
2022-08-25T15:56:44.467Z,5.80
2022-08-25T15:59:13.539Z,5.07
2022-08-25T16:01:41.618Z,5.43
2022-08-25T16:04:08.229Z,5.57
2022-08-25T16:06:34.905Z,6.68
2022-08-25T16:09:02.297Z,6.70
2022-08-25T16:11:30.817Z,6.85
2022-08-25T16:13:58.043Z,6.13
2022-08-25T16:16:26.753Z,5.57
2022-08-25T16:18:54.107Z,5.57
2022-08-25T16:21:25.656Z,5.82
2022-08-25T16:23:58.870Z,5.82
2022-08-25T16:26:26.258Z,5.40
2022-08-25T16:28:52.985Z,5.82
2022-08-25T16:31:19.799Z,5.53
2022-08-25T16:33:46.810Z,6.28
2022-08-25T16:36:20.042Z,5.82
2022-08-25T16:38:50.296Z,5.82
2022-08-25T16:41:24.792Z,6.60
2022-08-25T16:43:52.095Z,6.55
2022-08-25T16:46:21.035Z,5.70
2022-08-25T16:48:48.772Z,5.78
2022-08-25T16:51:19.297Z,5.97
2022-08-25T16:54:08.223Z,5.85
2022-08-25T16:56:37.044Z,5.20
2022-08-25T16:59:06.356Z,5.53
2022-08-25T17:01:35.470Z,6.13
2022-08-25T17:04:02.669Z,6.40
2022-08-25T17:06:33.877Z,5.63
2022-08-25T17:09:00.581Z,5.30
2022-08-25T17:11:30.216Z,5.88
2022-08-25T17:14:00.268Z,5.50
2022-08-25T17:16:30.300Z,5.80
2022-08-25T17:19:00.242Z,6.07
2022-08-25T17:21:32.991Z,5.65
2022-08-25T17:24:00.386Z,4.85
2022-08-25T17:26:29.121Z,5.68
2022-08-25T17:28:59.672Z,6.03
2022-08-25T17:31:27.086Z,5.68
2022-08-25T17:33:55.193Z,5.82
2022-08-25T17:36:27.129Z,5.57
2022-08-25T17:38:55.402Z,6.55
2022-08-25T17:41:24.052Z,6.03
2022-08-25T17:43:50.768Z,6.00
2022-08-25T17:46:17.760Z,5.68
2022-08-25T17:48:44.885Z,6.90
2022-08-25T17:51:12.367Z,5.78
2022-08-25T17:53:39.211Z,5.85
2022-08-25T17:56:10.760Z,6.00
2022-08-25T17:58:38.317Z,5.70
2022-08-25T18:01:06.224Z,5.55
2022-08-25T18:03:33.957Z,5.97
2022-08-25T18:06:00.994Z,5.43
2022-08-25T18:08:34.902Z,5.88
2022-08-25T18:11:03.410Z,5.35
2022-08-25T18:13:31.512Z,5.32
2022-08-25T18:15:58.774Z,5.68
2022-08-25T18:18:25.564Z,5.65
2022-08-25T18:20:55.272Z,6.25
2022-08-25T18:23:21.925Z,6.20
2022-08-25T18:25:49.429Z,6.38
2022-08-25T18:28:16.604Z,6.15
2022-08-25T18:30:43.340Z,5.65
2022-08-25T18:33:10.601Z,5.72
2022-08-25T18:35:37.960Z,5.75
2022-08-25T18:38:24.649Z,6.10
2022-08-25T18:40:57.662Z,6.53
2022-08-25T18:43:24.660Z,5.65
2022-08-25T18:45:51.565Z,6.93
2022-08-25T18:48:23.748Z,6.50
2022-08-25T18:50:54.802Z,6.63
2022-08-25T18:53:30.529Z,7.38
2022-08-25T18:56:05.222Z,6.20
2022-08-25T18:58:32.009Z,6.43
2022-08-25T19:01:00.866Z,6.47
2022-08-25T19:03:27.910Z,6.38
2022-08-25T19:05:57.573Z,6.47
2022-08-25T19:08:24.901Z,6.15
2022-08-25T19:10:54.255Z,6.50
2022-08-25T19:13:22.532Z,6.28
2022-08-25T19:15:50.909Z,6.38
2022-08-25T19:18:19.304Z,6.22
2022-08-25T19:20:52.943Z,6.20
2022-08-25T19:23:19.859Z,6.93
2022-08-25T19:25:46.706Z,5.85
2022-08-25T19:28:13.823Z,6.25
2022-08-25T19:30:49.941Z,6.15
2022-08-25T19:33:42.366Z,5.82
2022-08-25T19:36:08.495Z,6.50
2022-08-25T19:38:36.742Z,6.28
2022-08-25T19:41:10.595Z,6.47
2022-08-25T19:43:50.667Z,5.90
2022-08-25T19:46:25.644Z,6.03
2022-08-25T19:48:59.973Z,6.60
2022-08-25T19:51:28.874Z,6.55
2022-08-25T19:53:58.945Z,6.63
2022-08-25T19:56:28.277Z,6.10
2022-08-25T19:58:55.555Z,6.90
2022-08-25T20:01:22.177Z,5.88
2022-08-25T20:03:48.928Z,6.28
2022-08-25T20:06:16.284Z,6.00
2022-08-25T20:08:43.477Z,6.50
2022-08-25T20:11:10.231Z,6.15
2022-08-25T20:13:37.129Z,6.63
2022-08-25T20:16:04.300Z,6.80
2022-08-25T20:18:32.470Z,6.70
2022-08-25T20:20:59.210Z,6.60
2022-08-25T20:23:44.762Z,6.18
2022-08-25T20:26:11.390Z,6.43
2022-08-25T20:28:42.038Z,6.38
2022-08-25T20:31:09.375Z,6.25
2022-08-25T20:33:36.171Z,6.88
2022-08-25T20:36:04.875Z,6.07
2022-08-25T20:38:32.241Z,7.10
2022-08-25T20:41:00.836Z,6.55
2022-08-25T20:43:30.298Z,6.40
2022-08-25T20:46:04.952Z,6.68
2022-08-25T20:48:32.205Z,6.50
2022-08-25T20:50:58.963Z,6.15
2022-08-25T20:53:26.169Z,6.68
2022-08-25T20:55:52.902Z,7.22
2022-08-25T20:58:20.351Z,6.68
2022-08-25T21:00:47.453Z,6.38
2022-08-25T21:03:14.045Z,6.50
2022-08-25T21:05:42.785Z,6.70
2022-08-25T21:08:10.439Z,6.65
2022-08-25T21:10:37.602Z,7.10
2022-08-25T21:13:04.263Z,6.50
2022-08-25T21:15:31.509Z,6.70
2022-08-25T21:17:58.368Z,7.38
2022-08-25T21:20:26.369Z,7.35
2022-08-25T21:22:53.488Z,6.10
2022-08-25T21:25:21.747Z,6.38
2022-08-25T21:27:49.298Z,6.63
2022-08-25T21:30:16.760Z,6.53
2022-08-25T21:32:52.922Z,6.63
2022-08-25T21:35:22.405Z,6.45
2022-08-25T21:37:53.228Z,6.38
2022-08-25T21:40:21.498Z,6.80
2022-08-25T21:42:48.898Z,6.43
2022-08-25T21:45:15.693Z,6.72
2022-08-25T21:47:42.780Z,6.70
2022-08-25T21:50:13.119Z,6.68
2022-08-25T21:52:39.768Z,6.15
2022-08-25T21:55:15.841Z,7.07
2022-08-25T21:57:43.345Z,6.90
2022-08-25T22:00:11.628Z,7.78
2022-08-25T22:02:38.591Z,7.10
2022-08-25T22:05:09.356Z,7.45
2022-08-25T22:07:41.591Z,6.80
2022-08-25T22:10:09.522Z,7.10
2022-08-25T22:12:44.025Z,7.15
2022-08-25T22:15:13.572Z,7.47
2022-08-25T22:17:40.649Z,6.60
2022-08-25T22:20:08.882Z,6.47
2022-08-25T22:22:35.781Z,7.03
2022-08-25T22:25:02.782Z,7.30
2022-08-25T22:27:30.387Z,7.10
2022-08-25T22:29:58.166Z,6.70
2022-08-25T22:32:24.647Z,7.35
2022-08-25T22:34:51.333Z,7.53
2022-08-25T22:37:18.204Z,7.20
2022-08-25T22:39:45.735Z,6.93
2022-08-25T22:42:12.590Z,6.50
2022-08-25T22:44:40.065Z,7.38
2022-08-25T22:47:07.694Z,7.10
2022-08-25T22:49:35.518Z,7.43
2022-08-25T22:52:02.558Z,7.07
2022-08-25T22:54:29.971Z,7.75
2022-08-25T22:57:05.930Z,8.00
2022-08-25T22:59:33.331Z,7.53
2022-08-25T23:02:02.377Z,6.45
2022-08-25T23:04:29.078Z,7.53
2022-08-25T23:06:56.086Z,7.20
2022-08-25T23:09:23.600Z,7.40
2022-08-25T23:11:51.707Z,7.20
2022-08-25T23:14:18.946Z,8.10
2022-08-25T23:16:45.642Z,6.88
2022-08-25T23:19:13.867Z,7.00
2022-08-25T23:22:00.461Z,7.22
2022-08-25T23:24:29.844Z,7.22
2022-08-25T23:27:01.974Z,7.05
2022-08-25T23:31:57.290Z,6.85
2022-08-25T23:34:24.803Z,8.18
2022-08-25T23:36:51.725Z,7.68
2022-08-25T23:39:18.397Z,7.78
2022-08-25T23:41:48.288Z,7.13
2022-08-25T23:44:17.303Z,6.97
2022-08-25T23:46:45.342Z,6.57
2022-08-25T23:49:14.225Z,7.07
2022-08-25T23:51:44.990Z,9.82
2022-08-25T23:54:12.834Z,7.88
2022-08-25T23:56:44.497Z,8.02
2022-08-25T23:59:13.159Z,6.97
